createdAt,value
2018-12-11T00:00:49.950Z,6.7
2018-12-11T00:02:49.949Z,7.0
2018-12-11T00:04:50.159Z,7.0
2018-12-11T00:06:50.464Z,7.0
2018-12-11T00:08:50.383Z,7.0
2018-12-11T00:10:50.382Z,7.3
2018-12-11T00:12:50.469Z,7.0
2018-12-11T00:14:50.390Z,7.3
2018-12-11T00:16:49.613Z,6.9
2018-12-11T00:18:49.640Z,6.9
2018-12-11T00:20:49.607Z,6.2
2018-12-11T00:22:49.641Z,6.2
2018-12-11T00:24:49.739Z,6.2
2018-12-11T00:26:49.991Z,5.5
2018-12-11T00:28:49.984Z,5.5
2018-12-11T00:30:49.986Z,6.3
2018-12-11T00:32:49.880Z,6.0
2018-12-11T00:34:49.996Z,6.7
2018-12-11T00:36:50.184Z,6.7
2018-12-11T00:38:50.186Z,5.6
2018-12-11T00:40:50.162Z,5.6
2018-12-11T00:42:50.162Z,5.4
2018-12-11T00:44:50.183Z,5.6
2018-12-11T00:46:50.431Z,5.6
2018-12-11T00:48:50.381Z,5.9
2018-12-11T00:50:50.433Z,5.4
2018-12-11T00:52:50.354Z,5.0
2018-12-11T00:54:50.358Z,5.4
2018-12-11T00:56:49.614Z,5.4
2018-12-11T00:58:49.533Z,5.6
2018-12-11T01:00:49.549Z,5.4
2018-12-11T01:02:50.486Z,5.3
2018-12-11T01:04:49.797Z,5.0
2018-12-11T01:06:49.966Z,5.0
2018-12-11T01:08:49.983Z,5.1
2018-12-11T01:10:49.991Z,5.5
2018-12-11T01:12:50.005Z,5.2
2018-12-11T01:14:50.032Z,5.9
2018-12-11T01:16:50.191Z,5.9
2018-12-11T01:18:50.081Z,5.4
2018-12-11T01:20:50.049Z,5.4
2018-12-11T01:22:50.024Z,6.1
2018-12-11T01:24:50.033Z,5.8
2018-12-11T01:26:50.213Z,5.8
2018-12-11T01:28:50.126Z,5.5
2018-12-11T01:30:50.061Z,5.3
2018-12-11T01:32:50.010Z,4.8
2018-12-11T01:34:50.257Z,5.2
2018-12-11T01:36:50.470Z,5.2
2018-12-11T01:38:50.351Z,5.1
2018-12-11T01:40:50.388Z,5.0
2018-12-11T01:42:50.464Z,5.1
2018-12-11T01:44:50.368Z,4.6
2018-12-11T01:46:49.547Z,4.6
2018-12-11T01:48:49.566Z,5.1
2018-12-11T01:50:49.575Z,4.7
2018-12-11T01:52:49.585Z,4.9
2018-12-11T01:54:49.677Z,4.9
2018-12-11T01:56:49.866Z,4.8
2018-12-11T01:58:49.803Z,4.5
2018-12-11T02:00:49.789Z,5.0
2018-12-11T02:02:49.834Z,5.1
2018-12-11T02:04:50.129Z,5.1
2018-12-11T02:06:50.371Z,4.9
2018-12-11T02:08:50.274Z,5.2
2018-12-11T02:10:49.832Z,4.6
2018-12-11T02:12:49.931Z,4.6
2018-12-11T02:14:50.057Z,5.0
2018-12-11T02:16:50.461Z,4.9
2018-12-11T02:18:50.561Z,5.2
2018-12-11T02:20:49.680Z,5.0
2018-12-11T02:22:49.701Z,5.0
2018-12-11T02:24:49.717Z,4.8
2018-12-11T02:26:50.028Z,4.7
2018-12-11T02:28:50.004Z,5.0
2018-12-11T02:30:50.035Z,5.0
2018-12-11T02:32:50.052Z,5.0
2018-12-11T02:34:49.515Z,4.8
2018-12-11T02:36:49.782Z,4.4
2018-12-11T02:38:49.789Z,4.4
2018-12-11T02:40:49.772Z,4.4
2018-12-11T02:42:49.714Z,4.9
2018-12-11T02:44:49.776Z,4.9
2018-12-11T02:46:50.079Z,4.4
2018-12-11T02:48:50.096Z,4.5
2018-12-11T02:50:50.110Z,5.2
2018-12-11T02:52:50.009Z,5.2
2018-12-11T02:54:50.065Z,4.5
2018-12-11T02:56:50.399Z,4.4
2018-12-11T02:58:50.357Z,4.5
2018-12-11T03:00:50.427Z,4.5
2018-12-11T03:02:50.370Z,4.6
2018-12-11T03:04:49.763Z,4.2
2018-12-11T03:06:49.927Z,3.9
2018-12-11T03:08:50.254Z,4.7
2018-12-11T03:10:50.271Z,4.7
2018-12-11T03:12:50.200Z,4.0
2018-12-11T03:14:50.252Z,4.5
2018-12-11T03:16:50.460Z,4.2
2018-12-11T03:18:50.487Z,4.2
2018-12-11T03:20:50.463Z,4.2
2018-12-11T03:22:50.411Z,4.5
2018-12-11T03:24:50.522Z,3.8
2018-12-11T03:26:49.676Z,3.8
2018-12-11T03:28:49.777Z,4.2
2018-12-11T03:30:49.732Z,4.2
2018-12-11T03:32:49.871Z,4.0
2018-12-11T03:34:50.328Z,4.5
2018-12-11T03:36:49.604Z,4.0
2018-12-11T03:38:49.692Z,4.0
2018-12-11T03:40:49.726Z,4.0
2018-12-11T03:42:49.707Z,4.1
2018-12-11T03:44:49.799Z,4.5
2018-12-11T03:46:50.009Z,4.5
2018-12-11T03:48:49.950Z,4.2
2018-12-11T03:50:49.916Z,4.2
2018-12-11T03:52:49.919Z,4.2
2018-12-11T03:54:49.936Z,4.8
2018-12-11T03:56:50.128Z,4.2
2018-12-11T03:58:50.076Z,4.6
2018-12-11T04:00:50.203Z,4.6
2018-12-11T04:02:50.208Z,4.3
2018-12-11T04:04:49.510Z,4.5
2018-12-11T04:06:49.766Z,4.5
2018-12-11T04:08:49.730Z,5.3
2018-12-11T04:10:49.728Z,4.6
2018-12-11T04:12:49.834Z,4.6
2018-12-11T04:14:49.843Z,3.9
2018-12-11T04:16:49.962Z,4.5
2018-12-11T04:18:49.897Z,4.5
2018-12-11T04:20:49.881Z,4.4
2018-12-11T04:22:49.839Z,4.7
2018-12-11T04:24:49.761Z,4.6
2018-12-11T04:26:49.845Z,4.4
2018-12-11T04:28:49.871Z,4.4
2018-12-11T04:30:49.926Z,4.8
2018-12-11T04:32:50.001Z,4.3
2018-12-11T04:34:50.170Z,4.3
2018-12-11T04:36:50.431Z,4.4
2018-12-11T04:38:50.478Z,4.4
2018-12-11T04:40:50.446Z,4.0
2018-12-11T04:42:49.551Z,4.1
2018-12-11T04:44:49.717Z,4.2
2018-12-11T04:46:50.005Z,4.3
2018-12-11T04:48:49.916Z,4.3
2018-12-11T04:50:49.969Z,4.6
2018-12-11T04:52:49.992Z,4.2
2018-12-11T04:54:49.979Z,4.6
2018-12-11T04:56:50.263Z,4.6
2018-12-11T04:58:50.266Z,5.1
2018-12-11T05:00:50.273Z,5.0
2018-12-11T05:02:50.188Z,4.0
2018-12-11T05:04:49.554Z,4.4
2018-12-11T05:06:49.903Z,4.7
2018-12-11T05:08:49.886Z,4.7
2018-12-11T05:10:49.895Z,4.4
2018-12-11T05:12:49.864Z,4.4
2018-12-11T05:14:49.778Z,5.1
2018-12-11T05:16:49.899Z,5.1
2018-12-11T05:18:49.826Z,4.8
2018-12-11T05:20:49.782Z,4.3
2018-12-11T05:22:49.769Z,5.3
2018-12-11T05:24:49.793Z,4.8
2018-12-11T05:26:50.449Z,4.8
2018-12-11T05:28:50.421Z,5.1
2018-12-11T05:30:50.369Z,4.8
2018-12-11T05:32:50.455Z,4.2
2018-12-11T05:34:49.696Z,4.2
2018-12-11T05:36:49.867Z,4.2
2018-12-11T05:38:49.794Z,4.5
2018-12-11T05:40:49.821Z,4.1
2018-12-11T05:42:49.834Z,3.9
2018-12-11T05:44:49.791Z,3.9
2018-12-11T05:46:49.852Z,4.3
2018-12-11T05:48:49.826Z,4.1
2018-12-11T05:50:49.768Z,4.0
2018-12-11T05:52:49.742Z,3.4
2018-12-11T05:54:49.721Z,4.0
2018-12-11T05:56:49.945Z,4.0
2018-12-11T05:58:49.927Z,4.1
2018-12-11T06:00:49.914Z,4.0
2018-12-11T06:02:49.967Z,3.8
2018-12-11T06:04:50.271Z,3.8
2018-12-11T06:06:50.362Z,3.8
2018-12-11T06:08:50.348Z,4.1
2018-12-11T06:10:50.354Z,3.5
2018-12-11T06:12:50.286Z,3.8
2018-12-11T06:14:50.297Z,3.8
2018-12-11T06:16:49.563Z,4.4
2018-12-11T06:18:49.584Z,3.9
2018-12-11T06:20:49.596Z,3.4
2018-12-11T06:22:49.552Z,4.5
2018-12-11T06:24:49.539Z,4.5
2018-12-11T06:26:49.789Z,4.5
2018-12-11T06:28:49.788Z,4.1
2018-12-11T06:30:49.753Z,4.1
2018-12-11T06:32:49.781Z,4.0
2018-12-11T06:34:50.120Z,3.7
2018-12-11T06:36:50.116Z,4.0
2018-12-11T06:38:50.069Z,3.8
2018-12-11T06:40:50.052Z,3.8
2018-12-11T06:42:50.094Z,4.1
2018-12-11T06:44:50.109Z,3.8
2018-12-11T06:46:50.305Z,4.0
2018-12-11T06:48:49.829Z,4.1
2018-12-11T06:50:49.867Z,3.8
2018-12-11T06:52:49.818Z,3.8
2018-12-11T06:54:49.785Z,4.1
2018-12-11T06:56:50.069Z,4.4
2018-12-11T06:58:50.021Z,4.3
2018-12-11T07:00:50.007Z,4.3
2018-12-11T07:02:50.008Z,4.6
2018-12-11T07:04:50.231Z,4.6
2018-12-11T07:06:50.277Z,4.6
2018-12-11T07:08:50.350Z,4.7
2018-12-11T07:10:50.398Z,4.7
2018-12-11T07:12:50.449Z,5.0
2018-12-11T07:14:50.473Z,5.0
2018-12-11T07:16:49.652Z,4.7
2018-12-11T07:18:49.635Z,5.2
2018-12-11T07:20:49.628Z,5.2
2018-12-11T07:22:49.641Z,5.1
2018-12-11T07:24:49.662Z,5.2
2018-12-11T07:26:49.836Z,5.0
2018-12-11T07:28:49.771Z,5.0
2018-12-11T07:30:49.693Z,5.2
2018-12-11T07:32:49.654Z,5.3
2018-12-11T07:34:50.077Z,5.0
2018-12-11T07:36:50.313Z,5.0
2018-12-11T07:38:50.346Z,5.0
2018-12-11T07:40:50.347Z,5.0
2018-12-11T07:42:50.334Z,4.9
2018-12-11T07:44:50.346Z,4.8
2018-12-11T07:46:50.506Z,5.2
2018-12-11T07:48:50.517Z,5.2
2018-12-11T07:50:49.646Z,5.2
2018-12-11T07:52:49.685Z,4.5
2018-12-11T07:54:49.669Z,4.4
2018-12-11T07:56:49.893Z,4.6
2018-12-11T07:58:49.922Z,5.0
2018-12-11T08:00:49.841Z,5.0
2018-12-11T08:02:49.899Z,4.5
2018-12-11T08:04:50.320Z,4.9
2018-12-11T08:06:49.612Z,5.1
2018-12-11T08:08:49.618Z,5.1
2018-12-11T08:10:49.650Z,4.5
2018-12-11T08:12:49.699Z,4.6
2018-12-11T08:14:49.705Z,4.8
2018-12-11T08:16:49.929Z,5.0
2018-12-11T08:18:49.908Z,5.0
2018-12-11T08:20:49.805Z,5.0
2018-12-11T08:22:49.749Z,4.7
2018-12-11T08:24:49.686Z,5.1
2018-12-11T08:26:49.839Z,4.7
2018-12-11T08:28:49.880Z,4.7
2018-12-11T08:30:49.939Z,4.9
2018-12-11T08:32:49.938Z,4.8
2018-12-11T08:34:50.241Z,4.8
2018-12-11T08:36:50.315Z,4.8
2018-12-11T08:38:50.360Z,4.8
2018-12-11T08:40:50.291Z,4.5
2018-12-11T08:42:50.366Z,4.4
2018-12-11T08:44:51.540Z,4.5
2018-12-11T08:46:49.841Z,4.4
2018-12-11T08:48:49.800Z,4.4
2018-12-11T08:50:49.780Z,4.1
2018-12-11T08:52:49.762Z,4.2
2018-12-11T08:54:49.719Z,4.5
2018-12-11T08:56:49.942Z,4.2
2018-12-11T08:58:49.898Z,4.2
2018-12-11T09:00:49.856Z,4.5
2018-12-11T09:02:49.873Z,4.1
2018-12-11T09:04:50.082Z,4.2
2018-12-11T09:06:50.274Z,4.2
2018-12-11T09:08:50.267Z,3.9
2018-12-11T09:10:50.176Z,3.9
2018-12-11T09:12:50.186Z,3.7
2018-12-11T09:14:50.128Z,4.5
2018-12-11T09:16:50.324Z,4.5
2018-12-11T09:18:50.444Z,4.0
2018-12-11T09:20:50.430Z,4.1
2018-12-11T09:22:50.492Z,4.0
2018-12-11T09:24:50.419Z,4.0
2018-12-11T09:26:49.657Z,4.3
2018-12-11T09:28:49.639Z,4.1
2018-12-11T09:30:49.544Z,4.0
2018-12-11T09:32:49.647Z,4.0
2018-12-11T09:34:49.928Z,4.0
2018-12-11T09:36:49.987Z,4.0
2018-12-11T09:38:49.946Z,4.7
2018-12-11T09:40:49.851Z,4.7
2018-12-11T09:42:49.843Z,4.7
2018-12-11T09:44:49.799Z,4.5
2018-12-11T09:46:49.901Z,4.5
2018-12-11T09:48:49.958Z,4.7
2018-12-11T09:50:49.887Z,5.1
2018-12-11T09:52:49.926Z,4.1
2018-12-11T09:54:49.855Z,4.1
2018-12-11T09:56:49.953Z,4.2
2018-12-11T09:58:49.942Z,4.2
2018-12-11T10:00:49.877Z,3.7
2018-12-11T10:02:49.933Z,3.7
2018-12-11T10:04:50.207Z,3.7
2018-12-11T10:06:50.310Z,3.8
2018-12-11T10:08:50.335Z,3.7
2018-12-11T10:10:50.238Z,4.0
2018-12-11T10:12:50.326Z,4.2
2018-12-11T10:14:50.265Z,4.2
2018-12-11T10:16:50.461Z,4.3
2018-12-11T10:18:49.585Z,4.0
2018-12-11T10:20:50.551Z,3.8
2018-12-11T10:22:49.854Z,3.9
2018-12-11T10:24:49.872Z,3.9
2018-12-11T10:26:49.996Z,3.7
2018-12-11T10:28:50.052Z,3.9
2018-12-11T10:30:50.068Z,3.8
2018-12-11T10:32:50.118Z,3.8
2018-12-11T10:34:50.324Z,3.4
2018-12-11T10:36:49.699Z,3.8
2018-12-11T10:38:49.826Z,3.7
2018-12-11T10:40:49.727Z,3.4
2018-12-11T10:42:49.681Z,3.2
2018-12-11T10:44:49.815Z,3.2
2018-12-11T10:46:50.062Z,3.5
2018-12-11T10:48:50.184Z,3.2
2018-12-11T10:50:50.161Z,3.5
2018-12-11T10:52:50.135Z,3.6
2018-12-11T10:54:50.171Z,3.6
2018-12-11T10:56:50.272Z,3.9
2018-12-11T10:58:50.300Z,3.9
2018-12-11T11:00:50.219Z,4.0
2018-12-11T11:02:50.061Z,4.0
2018-12-11T11:04:50.508Z,3.9
2018-12-11T11:06:49.851Z,3.6
2018-12-11T11:08:49.789Z,4.2
2018-12-11T11:10:49.796Z,4.2
2018-12-11T11:12:49.872Z,4.2
2018-12-11T11:14:49.911Z,4.1
2018-12-11T11:16:50.222Z,3.4
2018-12-11T11:18:50.215Z,3.4
2018-12-11T11:20:50.342Z,3.9
2018-12-11T11:22:50.371Z,4.3
2018-12-11T11:24:50.283Z,4.1
2018-12-11T11:26:50.448Z,3.9
2018-12-11T11:28:50.465Z,4.1
2018-12-11T11:30:50.390Z,4.1
2018-12-11T11:32:50.473Z,4.3
2018-12-11T11:34:49.694Z,3.9
2018-12-11T11:36:49.946Z,4.2
2018-12-11T11:38:49.952Z,4.0
2018-12-11T11:40:49.911Z,4.0
2018-12-11T11:42:49.861Z,4.0
2018-12-11T11:44:50.999Z,3.9
2018-12-11T11:46:50.270Z,3.9
2018-12-11T11:48:50.199Z,4.3
2018-12-11T11:50:50.211Z,4.3
2018-12-11T11:52:50.174Z,4.0
2018-12-11T11:54:50.140Z,4.4
2018-12-11T11:56:50.292Z,4.4
2018-12-11T11:58:50.511Z,4.0
2018-12-11T12:00:50.501Z,4.0
2018-12-11T12:02:50.479Z,3.9
2018-12-11T12:04:49.902Z,3.7
2018-12-11T12:06:50.104Z,3.7
2018-12-11T12:08:50.053Z,3.6
2018-12-11T12:10:50.083Z,3.6
2018-12-11T12:12:50.016Z,4.0
2018-12-11T12:14:49.998Z,4.1
2018-12-11T12:16:50.147Z,4.1
2018-12-11T12:18:50.129Z,4.1
2018-12-11T12:20:50.137Z,3.8
2018-12-11T12:22:50.063Z,4.2
2018-12-11T12:24:50.142Z,4.2
2018-12-11T12:26:50.259Z,4.2
2018-12-11T12:28:50.225Z,4.0
2018-12-11T12:30:50.201Z,4.1
2018-12-11T12:32:50.156Z,4.0
2018-12-11T12:34:50.337Z,3.7
2018-12-11T12:36:50.504Z,4.0
2018-12-11T12:38:49.550Z,4.0
2018-12-11T12:40:50.477Z,3.7
2018-12-11T12:42:50.493Z,3.7
2018-12-11T12:44:49.545Z,3.5
2018-12-11T12:46:50.117Z,3.6
2018-12-11T12:48:50.042Z,3.6
2018-12-11T12:50:49.995Z,3.6
2018-12-11T12:52:50.003Z,3.5
2018-12-11T12:54:50.025Z,3.8
2018-12-11T12:56:50.122Z,3.5
2018-12-11T12:58:50.066Z,3.5
2018-12-11T13:00:50.377Z,3.7
2018-12-11T13:02:50.385Z,3.5
2018-12-11T13:04:50.138Z,3.4
2018-12-11T13:06:50.300Z,3.4
2018-12-11T13:08:50.414Z,3.6
2018-12-11T13:10:50.491Z,4.3
2018-12-11T13:12:49.536Z,4.1
2018-12-11T13:14:49.621Z,4.5
2018-12-11T13:16:49.823Z,4.5
2018-12-11T13:18:49.753Z,4.6
2018-12-11T13:20:49.789Z,4.6
2018-12-11T13:22:49.776Z,4.4
2018-12-11T13:24:49.725Z,4.5
2018-12-11T13:26:50.114Z,4.5
2018-12-11T13:28:50.101Z,4.6
2018-12-11T13:30:50.074Z,5.0
2018-12-11T13:32:50.038Z,5.0
2018-12-11T13:34:50.315Z,5.1
2018-12-11T13:36:49.742Z,5.1
2018-12-11T13:38:49.719Z,5.2
2018-12-11T13:40:49.818Z,5.4
2018-12-11T13:42:49.760Z,4.5
2018-12-11T13:44:49.695Z,4.9
2018-12-11T13:46:49.938Z,4.9
2018-12-11T13:48:49.882Z,4.5
2018-12-11T13:50:49.799Z,4.9
2018-12-11T13:52:49.856Z,4.3
2018-12-11T13:54:49.936Z,4.3
2018-12-11T13:56:50.014Z,4.5
2018-12-11T13:58:49.932Z,4.1
2018-12-11T14:00:49.864Z,4.3
2018-12-11T14:02:49.766Z,4.1
2018-12-11T14:04:50.008Z,4.1
2018-12-11T14:06:50.122Z,4.4
2018-12-11T14:08:50.093Z,4.4
2018-12-11T14:10:50.058Z,4.1
2018-12-11T14:12:49.990Z,3.9
2018-12-11T14:14:49.943Z,4.2
2018-12-11T14:16:50.149Z,4.2
2018-12-11T14:18:50.102Z,4.4
2018-12-11T14:20:50.033Z,3.8
2018-12-11T14:22:50.086Z,3.8
2018-12-11T14:24:50.005Z,4.4
2018-12-11T14:26:50.153Z,4.1
2018-12-11T14:28:50.098Z,3.7
2018-12-11T14:30:50.097Z,3.6
2018-12-11T14:32:50.087Z,3.6
2018-12-11T14:34:50.280Z,3.6
2018-12-11T14:36:50.399Z,3.3
2018-12-11T14:38:50.330Z,3.7
2018-12-11T14:40:50.273Z,4.0
2018-12-11T14:42:50.242Z,3.9
2018-12-11T14:44:50.207Z,3.9
2018-12-11T14:46:50.071Z,3.6
2018-12-11T14:48:50.070Z,3.8
2018-12-11T14:50:50.032Z,3.8
2018-12-11T14:52:50.073Z,3.8
2018-12-11T14:54:49.981Z,3.9
2018-12-11T14:56:50.112Z,4.1
2018-12-11T14:58:50.066Z,4.0
2018-12-11T15:00:50.013Z,4.2
2018-12-11T15:02:50.012Z,4.2
2018-12-11T15:04:50.363Z,4.2
2018-12-11T15:06:50.504Z,4.1
2018-12-11T15:08:49.591Z,4.4
2018-12-11T15:10:49.538Z,4.4
2018-12-11T15:12:49.578Z,4.0
2018-12-11T15:14:49.507Z,4.3
2018-12-11T15:16:49.706Z,4.4
2018-12-11T15:18:49.700Z,4.4
2018-12-11T15:20:49.653Z,4.4
2018-12-11T15:22:49.651Z,4.4
2018-12-11T15:24:49.671Z,4.4
2018-12-11T15:26:49.938Z,4.3
2018-12-11T15:28:49.902Z,3.9
2018-12-11T15:30:49.865Z,3.9
2018-12-11T15:32:49.892Z,4.4
2018-12-11T15:34:50.155Z,4.2
2018-12-11T15:36:50.293Z,3.9
2018-12-11T15:38:50.294Z,3.7
2018-12-11T15:40:50.276Z,3.7
2018-12-11T15:42:50.214Z,4.0
2018-12-11T15:44:50.191Z,4.3
2018-12-11T15:46:50.333Z,4.5
2018-12-11T15:48:50.206Z,4.5
2018-12-11T15:50:50.208Z,3.7
2018-12-11T15:52:50.119Z,3.9
2018-12-11T15:54:50.143Z,4.5
2018-12-11T15:56:50.418Z,4.0
2018-12-11T15:58:50.514Z,4.1
2018-12-11T16:00:50.475Z,4.1
2018-12-11T16:02:49.612Z,4.2
2018-12-11T16:04:49.961Z,5.0
2018-12-11T16:06:50.239Z,4.6
2018-12-11T16:08:50.257Z,4.9
2018-12-11T16:10:50.141Z,4.9
2018-12-11T16:12:50.128Z,4.7
2018-12-11T16:14:50.129Z,5.3
2018-12-11T16:16:50.238Z,5.4
2018-12-11T16:18:50.370Z,5.4
2018-12-11T16:20:50.292Z,5.1
2018-12-11T16:22:50.384Z,5.1
2018-12-11T16:24:50.413Z,4.9
2018-12-11T16:26:50.461Z,4.5
2018-12-11T16:28:50.478Z,4.5
2018-12-11T16:30:50.439Z,4.6
2018-12-11T16:32:49.522Z,4.7
2018-12-11T16:34:49.817Z,4.4
2018-12-11T16:36:49.959Z,4.4
2018-12-11T16:38:49.897Z,4.7
2018-12-11T16:40:49.816Z,4.7
2018-12-11T16:42:49.789Z,4.6
2018-12-11T16:44:49.745Z,4.7
2018-12-11T16:46:49.825Z,4.7
2018-12-11T16:48:49.880Z,6.5
2018-12-11T16:50:49.799Z,5.6
2018-12-11T16:52:49.750Z,5.7
2018-12-11T16:54:49.657Z,5.2
2018-12-11T16:56:50.008Z,5.4
2018-12-11T16:58:50.006Z,5.4
2018-12-11T17:00:49.998Z,5.3
2018-12-11T17:02:50.071Z,6.0
2018-12-11T17:04:50.379Z,6.0
2018-12-11T17:06:49.537Z,6.0
2018-12-11T17:08:49.542Z,6.0
2018-12-11T17:10:49.532Z,5.5
2018-12-11T17:12:49.541Z,5.7
2018-12-11T17:14:49.621Z,6.1
2018-12-11T17:16:49.817Z,6.1
2018-12-11T17:18:49.812Z,5.5
2018-12-11T17:20:49.800Z,6.3
2018-12-11T17:22:49.765Z,5.8
2018-12-11T17:24:49.776Z,6.1
2018-12-11T17:26:49.974Z,5.8
2018-12-11T17:28:50.002Z,5.8
2018-12-11T17:30:49.945Z,6.2
2018-12-11T17:32:49.950Z,6.4
2018-12-11T17:34:50.316Z,6.4
2018-12-11T17:36:49.562Z,6.4
2018-12-11T17:38:49.552Z,6.5
2018-12-11T17:40:49.509Z,6.2
2018-12-11T17:42:49.625Z,6.8
2018-12-11T17:44:49.561Z,6.8
2018-12-11T17:46:49.719Z,6.5
2018-12-11T17:48:49.798Z,7.3
2018-12-11T17:50:49.776Z,7.4
2018-12-11T17:52:49.790Z,8.0
2018-12-11T17:54:49.811Z,8.0
2018-12-11T17:56:49.939Z,7.7
2018-12-11T17:58:49.978Z,8.2
2018-12-11T18:00:49.974Z,8.4
2018-12-11T18:02:49.999Z,8.4
2018-12-11T18:04:50.345Z,8.0
2018-12-11T18:06:49.575Z,8.0
2018-12-11T18:08:49.579Z,7.8
2018-12-11T18:10:49.638Z,7.7
2018-12-11T18:12:49.678Z,7.7
2018-12-11T18:14:49.698Z,7.7
2018-12-11T18:16:49.835Z,7.1
2018-12-11T18:18:49.791Z,7.7
2018-12-11T18:20:49.789Z,7.6
2018-12-11T18:22:49.796Z,7.7
2018-12-11T18:24:49.772Z,7.7
2018-12-11T18:26:50.070Z,7.1
2018-12-11T18:28:50.012Z,7.4
2018-12-11T18:30:49.962Z,7.1
2018-12-11T18:32:49.924Z,7.6
2018-12-11T18:34:50.241Z,7.6
2018-12-11T18:36:50.482Z,7.7
2018-12-11T18:38:50.497Z,8.4
2018-12-11T18:40:50.514Z,7.9
2018-12-11T18:42:50.477Z,8.2
2018-12-11T18:44:49.523Z,8.2
2018-12-11T18:46:49.672Z,7.7
2018-12-11T18:48:49.665Z,8.4
2018-12-11T18:50:49.680Z,8.4
2018-12-11T18:52:49.789Z,8.4
2018-12-11T18:54:49.794Z,8.5
2018-12-11T18:56:50.017Z,8.2
2018-12-11T18:58:50.018Z,7.1
2018-12-11T19:00:49.969Z,8.2
2018-12-11T19:02:49.937Z,8.2
2018-12-11T19:04:50.284Z,7.0
2018-12-11T19:06:50.510Z,8.7
2018-12-11T19:08:50.472Z,7.5
2018-12-11T19:10:50.396Z,8.0
2018-12-11T19:12:49.537Z,8.0
2018-12-11T19:14:49.537Z,8.2
2018-12-11T19:16:49.704Z,8.6
2018-12-11T19:18:49.814Z,7.8
2018-12-11T19:20:49.796Z,7.8
2018-12-11T19:22:49.746Z,8.1
2018-12-11T19:24:49.775Z,8.5
2018-12-11T19:26:50.047Z,8.4
2018-12-11T19:28:50.042Z,8.4
2018-12-11T19:30:50.026Z,8.4
2018-12-11T19:32:50.014Z,8.5
2018-12-11T19:34:50.396Z,8.9
2018-12-11T19:36:49.608Z,9.2
2018-12-11T19:38:49.550Z,8.6
2018-12-11T19:40:49.582Z,8.6
2018-12-11T19:42:49.599Z,8.8
2018-12-11T19:44:49.562Z,9.1
2018-12-11T19:46:49.782Z,8.8
2018-12-11T19:48:49.779Z,9.0
2018-12-11T19:50:49.696Z,9.0
2018-12-11T19:52:49.701Z,8.8
2018-12-11T19:54:49.748Z,8.6
2018-12-11T19:56:49.870Z,8.4
2018-12-11T19:58:49.826Z,8.3
2018-12-11T20:00:49.822Z,8.3
2018-12-11T20:02:49.861Z,8.6
2018-12-11T20:04:50.081Z,8.5
2018-12-11T20:06:50.276Z,9.4
2018-12-11T20:08:50.261Z,9.0
2018-12-11T20:10:50.267Z,9.0
2018-12-11T20:12:50.299Z,9.0
2018-12-11T20:14:50.333Z,8.7
2018-12-11T20:16:49.562Z,9.0
2018-12-11T20:18:49.599Z,10.8
2018-12-11T20:20:49.667Z,10.8
2018-12-11T20:22:49.608Z,9.1
2018-12-11T20:24:49.688Z,8.8
2018-12-11T20:26:49.940Z,9.7
2018-12-11T20:28:49.883Z,9.0
2018-12-11T20:30:49.881Z,9.0
2018-12-11T20:32:49.851Z,9.1
2018-12-11T20:34:50.086Z,8.5
2018-12-11T20:36:50.235Z,9.1
2018-12-11T20:38:50.300Z,8.1
2018-12-11T20:40:50.278Z,8.1
2018-12-11T20:42:50.272Z,8.9
2018-12-11T20:44:50.269Z,9.1
2018-12-11T20:46:49.539Z,8.9
2018-12-11T20:48:49.536Z,8.9
2018-12-11T20:50:49.555Z,10.7
2018-12-11T20:52:50.491Z,9.2
2018-12-11T20:54:50.412Z,8.8
2018-12-11T20:56:49.698Z,9.5
2018-12-11T20:58:49.702Z,9.5
2018-12-11T21:00:49.879Z,9.2
2018-12-11T21:02:49.900Z,9.3
2018-12-11T21:04:50.178Z,9.3
2018-12-11T21:06:50.332Z,10.2
2018-12-11T21:08:50.294Z,10.2
2018-12-11T21:10:50.392Z,9.8
2018-12-11T21:12:50.353Z,9.5
2018-12-11T21:14:50.395Z,9.5
2018-12-11T21:16:49.538Z,9.5
2018-12-11T21:18:49.521Z,9.6
2018-12-11T21:20:50.501Z,9.6
2018-12-11T21:22:49.531Z,9.7
2018-12-11T21:24:49.643Z,10.2
2018-12-11T21:26:49.988Z,9.7
2018-12-11T21:28:49.971Z,9.5
2018-12-11T21:30:49.994Z,10.3
2018-12-11T21:32:49.981Z,11.8
2018-12-11T21:34:50.202Z,11.8
2018-12-11T21:36:50.388Z,10.1
2018-12-11T21:38:50.445Z,10.4
2018-12-11T21:40:50.337Z,11.0
2018-12-11T21:42:50.379Z,11.1
2018-12-11T21:44:50.418Z,11.6
2018-12-11T21:46:49.669Z,11.6
2018-12-11T21:48:49.651Z,11.2
2018-12-11T21:50:49.798Z,11.0
2018-12-11T21:52:49.723Z,11.0
2018-12-11T21:54:49.787Z,11.5
2018-12-11T21:56:50.097Z,11.5
2018-12-11T21:58:50.108Z,12.7
2018-12-11T22:00:50.094Z,11.5
2018-12-11T22:02:50.000Z,12.1
2018-12-11T22:04:50.352Z,12.5
2018-12-11T22:06:50.485Z,12.5
2018-12-11T22:08:50.502Z,10.7
2018-12-11T22:10:49.622Z,12.4
2018-12-11T22:12:49.646Z,12.8
2018-12-11T22:14:49.647Z,12.8
2018-12-11T22:16:49.815Z,13.4
2018-12-11T22:18:49.766Z,13.4
2018-12-11T22:20:49.719Z,12.8
2018-12-11T22:22:49.746Z,12.8
2018-12-11T22:24:49.891Z,12.4
2018-12-11T22:26:50.114Z,11.9
2018-12-11T22:28:50.165Z,13.0
2018-12-11T22:30:50.139Z,13.0
2018-12-11T22:32:50.078Z,13.6
2018-12-11T22:34:50.300Z,13.6
2018-12-11T22:36:49.536Z,13.4
2018-12-11T22:38:49.542Z,13.0
2018-12-11T22:40:49.542Z,13.0
2018-12-11T22:42:49.700Z,13.2
2018-12-11T22:44:49.654Z,13.2
2018-12-11T22:46:50.000Z,13.3
2018-12-11T22:48:49.955Z,13.3
2018-12-11T22:50:49.977Z,12.9
2018-12-11T22:52:50.002Z,12.4
2018-12-11T22:54:50.022Z,12.4
2018-12-11T22:56:50.236Z,12.1
2018-12-11T22:58:50.200Z,12.8
2018-12-11T23:00:50.122Z,12.8
2018-12-11T23:02:50.138Z,12.8
2018-12-11T23:04:50.344Z,12.8
2018-12-11T23:06:49.664Z,12.1
2018-12-11T23:08:49.766Z,12.2
2018-12-11T23:10:49.751Z,12.5
2018-12-11T23:12:49.766Z,12.5
2018-12-11T23:14:49.765Z,11.9
2018-12-11T23:16:49.864Z,11.8
2018-12-11T23:18:49.857Z,11.7
2018-12-11T23:20:49.802Z,11.5
2018-12-11T23:22:49.768Z,11.5
2018-12-11T23:24:49.807Z,11.5
2018-12-11T23:26:50.014Z,11.7
2018-12-11T23:28:50.083Z,12.4
2018-12-11T23:30:50.114Z,12.7
2018-12-11T23:32:50.122Z,12.7
2018-12-11T23:34:50.486Z,12.5
2018-12-11T23:36:49.705Z,13.7
2018-12-11T23:38:49.656Z,13.7
2018-12-11T23:40:49.677Z,12.5
2018-12-11T23:42:49.802Z,12.5
2018-12-11T23:44:49.832Z,12.0
2018-12-11T23:46:50.137Z,12.4
2018-12-11T23:48:50.100Z,12.4
2018-12-11T23:50:50.046Z,13.2
2018-12-11T23:52:50.057Z,13.2
2018-12-11T23:54:50.113Z,13.8
2018-12-11T23:56:50.258Z,12.5
2018-12-11T23:58:50.226Z,14.9
